sensor_id;sensor_type;location;lat;lon;timestamp;P1;durP1;ratioP1;P2;durP2;ratioP2
16270;SDS011;8243;49.048;8.396;2023-01-28T00:01:06;3.10;;;2.80;;
16270;SDS011;8243;49.048;8.396;2023-01-28T00:03:33;2.50;;;2.30;;
16270;SDS011;8243;49.048;8.396;2023-01-28T00:06:09;3.40;;;2.50;;
16270;SDS011;8243;49.048;8.396;2023-01-28T00:08:37;3.80;;;2.53;;
16270;SDS011;8243;49.048;8.396;2023-01-28T00:11:04;3.20;;;2.90;;
16270;SDS011;8243;49.048;8.396;2023-01-28T00:13:31;3.70;;;2.53;;
16270;SDS011;8243;49.048;8.396;2023-01-28T00:15:58;3.40;;;2.77;;
16270;SDS011;8243;49.048;8.396;2023-01-28T00:18:25;3.20;;;2.90;;
16270;SDS011;8243;49.048;8.396;2023-01-28T00:21:11;3.30;;;3.00;;
16270;SDS011;8243;49.048;8.396;2023-01-28T00:23:38;2.73;;;2.50;;
16270;SDS011;8243;49.048;8.396;2023-01-28T00:26:06;2.67;;;2.47;;
16270;SDS011;8243;49.048;8.396;2023-01-28T00:28:36;2.50;;;2.30;;
16270;SDS011;8243;49.048;8.396;2023-01-28T00:31:06;2.60;;;2.33;;
16270;SDS011;8243;49.048;8.396;2023-01-28T00:33:38;2.60;;;2.40;;
16270;SDS011;8243;49.048;8.396;2023-01-28T00:36:04;2.37;;;2.17;;
16270;SDS011;8243;49.048;8.396;2023-01-28T00:38:30;3.13;;;2.50;;
16270;SDS011;8243;49.048;8.396;2023-01-28T00:41:05;2.87;;;2.20;;
16270;SDS011;8243;49.048;8.396;2023-01-28T00:43:36;3.10;;;2.37;;
16270;SDS011;8243;49.048;8.396;2023-01-28T00:46:02;3.80;;;2.40;;
16270;SDS011;8243;49.048;8.396;2023-01-28T00:48:34;4.23;;;2.57;;
16270;SDS011;8243;49.048;8.396;2023-01-28T00:51:00;4.37;;;3.00;;
16270;SDS011;8243;49.048;8.396;2023-01-28T00:53:26;2.90;;;2.37;;
16270;SDS011;8243;49.048;8.396;2023-01-28T00:55:52;3.60;;;2.40;;
16270;SDS011;8243;49.048;8.396;2023-01-28T00:58:18;3.43;;;2.83;;
16270;SDS011;8243;49.048;8.396;2023-01-28T01:00:43;2.97;;;2.67;;
16270;SDS011;8243;49.048;8.396;2023-01-28T01:03:09;3.00;;;2.63;;
16270;SDS011;8243;49.048;8.396;2023-01-28T01:05:35;3.27;;;2.70;;
16270;SDS011;8243;49.048;8.396;2023-01-28T01:08:00;2.53;;;2.30;;
16270;SDS011;8243;49.048;8.396;2023-01-28T01:10:26;3.70;;;2.93;;
16270;SDS011;8243;49.048;8.396;2023-01-28T01:12:51;2.53;;;2.33;;
16270;SDS011;8243;49.048;8.396;2023-01-28T01:15:17;2.57;;;2.37;;
16270;SDS011;8243;49.048;8.396;2023-01-28T01:17:44;3.57;;;2.70;;
16270;SDS011;8243;49.048;8.396;2023-01-28T01:22:48;3.80;;;2.80;;
16270;SDS011;8243;49.048;8.396;2023-01-28T01:25:15;3.20;;;2.90;;
16270;SDS011;8243;49.048;8.396;2023-01-28T01:27:41;3.60;;;3.00;;
16270;SDS011;8243;49.048;8.396;2023-01-28T01:30:09;3.50;;;2.80;;
16270;SDS011;8243;49.048;8.396;2023-01-28T01:32:35;3.33;;;2.70;;
16270;SDS011;8243;49.048;8.396;2023-01-28T01:35:01;3.27;;;2.83;;
16270;SDS011;8243;49.048;8.396;2023-01-28T01:37:29;3.20;;;2.90;;
16270;SDS011;8243;49.048;8.396;2023-01-28T01:39:55;3.10;;;2.73;;
16270;SDS011;8243;49.048;8.396;2023-01-28T01:42:21;3.23;;;2.90;;
16270;SDS011;8243;49.048;8.396;2023-01-28T01:47:32;2.97;;;2.73;;
16270;SDS011;8243;49.048;8.396;2023-01-28T01:50:12;3.90;;;2.90;;
16270;SDS011;8243;49.048;8.396;2023-01-28T01:52:51;3.20;;;2.83;;
16270;SDS011;8243;49.048;8.396;2023-01-28T01:55:20;3.77;;;2.77;;
16270;SDS011;8243;49.048;8.396;2023-01-28T01:57:48;3.10;;;2.80;;
16270;SDS011;8243;49.048;8.396;2023-01-28T02:00:15;3.27;;;2.77;;
16270;SDS011;8243;49.048;8.396;2023-01-28T02:02:45;3.07;;;2.63;;
16270;SDS011;8243;49.048;8.396;2023-01-28T02:05:14;3.37;;;3.07;;
16270;SDS011;8243;49.048;8.396;2023-01-28T02:07:42;3.80;;;2.97;;
16270;SDS011;8243;49.048;8.396;2023-01-28T02:10:09;3.20;;;2.53;;
16270;SDS011;8243;49.048;8.396;2023-01-28T02:12:36;3.17;;;2.77;;
16270;SDS011;8243;49.048;8.396;2023-01-28T02:15:25;2.87;;;2.57;;
16270;SDS011;8243;49.048;8.396;2023-01-28T02:17:53;3.67;;;3.00;;
16270;SDS011;8243;49.048;8.396;2023-01-28T02:20:23;3.67;;;3.10;;
16270;SDS011;8243;49.048;8.396;2023-01-28T02:31:23;3.40;;;2.90;;
16270;SDS011;8243;49.048;8.396;2023-01-28T02:34:01;3.13;;;2.83;;
16270;SDS011;8243;49.048;8.396;2023-01-28T02:39:19;4.00;;;3.30;;
16270;SDS011;8243;49.048;8.396;2023-01-28T02:42:14;3.20;;;2.90;;
16270;SDS011;8243;49.048;8.396;2023-01-28T02:44:47;4.67;;;3.00;;
16270;SDS011;8243;49.048;8.396;2023-01-28T02:47:13;3.07;;;2.70;;
16270;SDS011;8243;49.048;8.396;2023-01-28T02:49:58;2.70;;;2.50;;
16270;SDS011;8243;49.048;8.396;2023-01-28T02:52:36;2.90;;;2.53;;
16270;SDS011;8243;49.048;8.396;2023-01-28T02:55:42;2.40;;;2.20;;
16270;SDS011;8243;49.048;8.396;2023-01-28T03:01:52;2.87;;;2.43;;
16270;SDS011;8243;49.048;8.396;2023-01-28T03:04:03;3.00;;;2.70;;
16270;SDS011;8243;49.048;8.396;2023-01-28T03:06:46;2.77;;;2.47;;
16270;SDS011;8243;49.048;8.396;2023-01-28T03:09:16;2.83;;;2.50;;
16270;SDS011;8243;49.048;8.396;2023-01-28T03:14:48;3.30;;;3.00;;
16270;SDS011;8243;49.048;8.396;2023-01-28T03:17:44;3.13;;;2.83;;
16270;SDS011;8243;49.048;8.396;2023-01-28T03:21:01;3.10;;;2.77;;
16270;SDS011;8243;49.048;8.396;2023-01-28T03:23:58;3.37;;;3.07;;
16270;SDS011;8243;49.048;8.396;2023-01-28T03:26:48;3.20;;;2.90;;
16270;SDS011;8243;49.048;8.396;2023-01-28T03:29:33;4.40;;;2.97;;
16270;SDS011;8243;49.048;8.396;2023-01-28T03:32:19;3.50;;;3.20;;
16270;SDS011;8243;49.048;8.396;2023-01-28T03:35:05;4.10;;;3.43;;
16270;SDS011;8243;49.048;8.396;2023-01-28T03:37:51;3.43;;;3.13;;
16270;SDS011;8243;49.048;8.396;2023-01-28T03:40:17;3.40;;;3.17;;
16270;SDS011;8243;49.048;8.396;2023-01-28T03:42:43;3.80;;;3.37;;
16270;SDS011;8243;49.048;8.396;2023-01-28T03:45:09;3.93;;;3.53;;
16270;SDS011;8243;49.048;8.396;2023-01-28T03:47:35;4.80;;;3.00;;
16270;SDS011;8243;49.048;8.396;2023-01-28T03:50:01;3.43;;;3.10;;
16270;SDS011;8243;49.048;8.396;2023-01-28T03:52:30;5.33;;;3.37;;
16270;SDS011;8243;49.048;8.396;2023-01-28T03:54:57;3.20;;;2.63;;
16270;SDS011;8243;49.048;8.396;2023-01-28T03:57:24;3.80;;;3.50;;
16270;SDS011;8243;49.048;8.396;2023-01-28T03:59:51;4.33;;;3.93;;
16270;SDS011;8243;49.048;8.396;2023-01-28T04:02:17;4.37;;;3.67;;
16270;SDS011;8243;49.048;8.396;2023-01-28T04:04:44;4.43;;;4.03;;
16270;SDS011;8243;49.048;8.396;2023-01-28T04:07:11;4.30;;;3.90;;
16270;SDS011;8243;49.048;8.396;2023-01-28T04:09:39;4.30;;;3.90;;
16270;SDS011;8243;49.048;8.396;2023-01-28T04:12:05;4.17;;;3.77;;
16270;SDS011;8243;49.048;8.396;2023-01-28T04:14:31;4.60;;;3.83;;
16270;SDS011;8243;49.048;8.396;2023-01-28T04:16:57;4.10;;;3.70;;
16270;SDS011;8243;49.048;8.396;2023-01-28T04:19:22;4.00;;;3.60;;
16270;SDS011;8243;49.048;8.396;2023-01-28T04:21:48;3.80;;;3.50;;
16270;SDS011;8243;49.048;8.396;2023-01-28T04:24:15;4.63;;;3.87;;
16270;SDS011;8243;49.048;8.396;2023-01-28T04:26:40;3.90;;;3.50;;
16270;SDS011;8243;49.048;8.396;2023-01-28T04:29:06;4.53;;;3.80;;
16270;SDS011;8243;49.048;8.396;2023-01-28T04:31:32;3.90;;;3.50;;
16270;SDS011;8243;49.048;8.396;2023-01-28T04:33:58;4.00;;;3.70;;
16270;SDS011;8243;49.048;8.396;2023-01-28T04:36:24;4.03;;;3.63;;
16270;SDS011;8243;49.048;8.396;2023-01-28T04:38:50;3.83;;;3.33;;
16270;SDS011;8243;49.048;8.396;2023-01-28T04:41:16;5.03;;;4.53;;
16270;SDS011;8243;49.048;8.396;2023-01-28T04:43:41;3.97;;;3.57;;
16270;SDS011;8243;49.048;8.396;2023-01-28T04:46:07;3.80;;;3.50;;
16270;SDS011;8243;49.048;8.396;2023-01-28T04:48:33;4.17;;;3.77;;
16270;SDS011;8243;49.048;8.396;2023-01-28T04:51:00;4.17;;;3.77;;
16270;SDS011;8243;49.048;8.396;2023-01-28T04:53:26;3.73;;;3.33;;
16270;SDS011;8243;49.048;8.396;2023-01-28T04:55:52;3.63;;;3.33;;
16270;SDS011;8243;49.048;8.396;2023-01-28T04:58:17;3.90;;;2.87;;
16270;SDS011;8243;49.048;8.396;2023-01-28T05:00:43;3.60;;;3.30;;
16270;SDS011;8243;49.048;8.396;2023-01-28T05:03:08;4.67;;;3.67;;
16270;SDS011;8243;49.048;8.396;2023-01-28T05:05:34;3.63;;;3.20;;
16270;SDS011;8243;49.048;8.396;2023-01-28T05:07:59;4.60;;;2.93;;
16270;SDS011;8243;49.048;8.396;2023-01-28T05:10:25;3.90;;;3.13;;
16270;SDS011;8243;49.048;8.396;2023-01-28T05:12:51;3.53;;;3.23;;
16270;SDS011;8243;49.048;8.396;2023-01-28T05:15:18;3.20;;;2.90;;
16270;SDS011;8243;49.048;8.396;2023-01-28T05:17:44;3.73;;;3.40;;
16270;SDS011;8243;49.048;8.396;2023-01-28T05:20:10;4.10;;;3.70;;
16270;SDS011;8243;49.048;8.396;2023-01-28T05:22:37;3.93;;;3.53;;
16270;SDS011;8243;49.048;8.396;2023-01-28T05:25:03;3.73;;;3.43;;
16270;SDS011;8243;49.048;8.396;2023-01-28T05:27:30;4.63;;;4.00;;
16270;SDS011;8243;49.048;8.396;2023-01-28T05:29:56;5.03;;;3.83;;
16270;SDS011;8243;49.048;8.396;2023-01-28T05:32:22;3.60;;;2.70;;
16270;SDS011;8243;49.048;8.396;2023-01-28T05:34:48;3.83;;;3.43;;
16270;SDS011;8243;49.048;8.396;2023-01-28T05:37:14;3.60;;;3.07;;
16270;SDS011;8243;49.048;8.396;2023-01-28T05:39:39;3.47;;;3.17;;
16270;SDS011;8243;49.048;8.396;2023-01-28T05:42:05;3.17;;;2.87;;
16270;SDS011;8243;49.048;8.396;2023-01-28T05:44:30;3.97;;;3.50;;
16270;SDS011;8243;49.048;8.396;2023-01-28T05:46:56;3.90;;;3.50;;
16270;SDS011;8243;49.048;8.396;2023-01-28T05:49:22;4.70;;;3.40;;
16270;SDS011;8243;49.048;8.396;2023-01-28T05:51:47;4.50;;;3.47;;
16270;SDS011;8243;49.048;8.396;2023-01-28T05:54:13;3.43;;;3.03;;
16270;SDS011;8243;49.048;8.396;2023-01-28T05:56:39;3.70;;;3.30;;
16270;SDS011;8243;49.048;8.396;2023-01-28T05:59:05;3.67;;;3.23;;
16270;SDS011;8243;49.048;8.396;2023-01-28T06:01:30;4.67;;;3.73;;
16270;SDS011;8243;49.048;8.396;2023-01-28T06:03:56;3.73;;;3.23;;
16270;SDS011;8243;49.048;8.396;2023-01-28T06:06:23;4.33;;;3.80;;
16270;SDS011;8243;49.048;8.396;2023-01-28T06:08:48;4.07;;;3.50;;
16270;SDS011;8243;49.048;8.396;2023-01-28T06:11:14;3.97;;;3.37;;
16270;SDS011;8243;49.048;8.396;2023-01-28T06:13:39;3.60;;;3.30;;
16270;SDS011;8243;49.048;8.396;2023-01-28T06:16:05;4.63;;;3.33;;
16270;SDS011;8243;49.048;8.396;2023-01-28T06:18:31;4.07;;;3.67;;
16270;SDS011;8243;49.048;8.396;2023-01-28T06:20:57;4.73;;;3.50;;
16270;SDS011;8243;49.048;8.396;2023-01-28T06:23:23;4.63;;;4.00;;
16270;SDS011;8243;49.048;8.396;2023-01-28T06:25:52;4.60;;;4.20;;
16270;SDS011;8243;49.048;8.396;2023-01-28T06:28:19;4.10;;;3.67;;
16270;SDS011;8243;49.048;8.396;2023-01-28T06:30:46;4.47;;;3.97;;
16270;SDS011;8243;49.048;8.396;2023-01-28T06:33:13;5.23;;;3.77;;
16270;SDS011;8243;49.048;8.396;2023-01-28T06:35:38;3.67;;;3.37;;
16270;SDS011;8243;49.048;8.396;2023-01-28T06:38:04;3.97;;;3.57;;
16270;SDS011;8243;49.048;8.396;2023-01-28T06:40:29;4.20;;;3.80;;
16270;SDS011;8243;49.048;8.396;2023-01-28T06:42:55;4.60;;;4.20;;
16270;SDS011;8243;49.048;8.396;2023-01-28T06:45:21;4.63;;;4.23;;
16270;SDS011;8243;49.048;8.396;2023-01-28T06:47:46;5.23;;;4.00;;
16270;SDS011;8243;49.048;8.396;2023-01-28T06:50:12;4.37;;;3.97;;
16270;SDS011;8243;49.048;8.396;2023-01-28T06:52:37;4.30;;;3.90;;
16270;SDS011;8243;49.048;8.396;2023-01-28T06:55:03;4.37;;;3.97;;
16270;SDS011;8243;49.048;8.396;2023-01-28T06:57:29;5.37;;;3.60;;
16270;SDS011;8243;49.048;8.396;2023-01-28T06:59:55;3.70;;;3.40;;
16270;SDS011;8243;49.048;8.396;2023-01-28T07:02:20;5.03;;;3.90;;
16270;SDS011;8243;49.048;8.396;2023-01-28T07:04:46;3.93;;;3.50;;
16270;SDS011;8243;49.048;8.396;2023-01-28T07:07:11;4.53;;;3.77;;
16270;SDS011;8243;49.048;8.396;2023-01-28T07:09:37;4.13;;;3.50;;
16270;SDS011;8243;49.048;8.396;2023-01-28T07:12:02;3.57;;;3.27;;
16270;SDS011;8243;49.048;8.396;2023-01-28T07:14:29;4.23;;;3.70;;
16270;SDS011;8243;49.048;8.396;2023-01-28T07:16:55;3.97;;;3.10;;
16270;SDS011;8243;49.048;8.396;2023-01-28T07:19:21;3.23;;;2.93;;
16270;SDS011;8243;49.048;8.396;2023-01-28T07:21:46;4.10;;;3.70;;
16270;SDS011;8243;49.048;8.396;2023-01-28T07:24:12;4.10;;;3.70;;
16270;SDS011;8243;49.048;8.396;2023-01-28T07:26:37;3.77;;;3.33;;
16270;SDS011;8243;49.048;8.396;2023-01-28T07:29:03;3.97;;;3.60;;
16270;SDS011;8243;49.048;8.396;2023-01-28T07:31:28;3.77;;;3.47;;
16270;SDS011;8243;49.048;8.396;2023-01-28T07:33:54;3.23;;;2.93;;
16270;SDS011;8243;49.048;8.396;2023-01-28T07:36:19;3.50;;;3.03;;
16270;SDS011;8243;49.048;8.396;2023-01-28T07:38:45;4.87;;;3.30;;
16270;SDS011;8243;49.048;8.396;2023-01-28T07:41:10;3.57;;;3.27;;
16270;SDS011;8243;49.048;8.396;2023-01-28T07:43:36;3.63;;;3.30;;
16270;SDS011;8243;49.048;8.396;2023-01-28T07:46:01;4.00;;;3.43;;
16270;SDS011;8243;49.048;8.396;2023-01-28T07:48:27;4.07;;;3.53;;
16270;SDS011;8243;49.048;8.396;2023-01-28T07:50:53;4.60;;;3.80;;
16270;SDS011;8243;49.048;8.396;2023-01-28T07:53:23;6.67;;;3.97;;
16270;SDS011;8243;49.048;8.396;2023-01-28T07:55:48;4.33;;;3.97;;
16270;SDS011;8243;49.048;8.396;2023-01-28T07:58:14;3.90;;;3.50;;
16270;SDS011;8243;49.048;8.396;2023-01-28T08:00:39;4.63;;;4.10;;
16270;SDS011;8243;49.048;8.396;2023-01-28T08:03:06;4.30;;;3.90;;
16270;SDS011;8243;49.048;8.396;2023-01-28T08:05:49;6.30;;;3.70;;
16270;SDS011;8243;49.048;8.396;2023-01-28T08:08:16;4.90;;;4.50;;
16270;SDS011;8243;49.048;8.396;2023-01-28T08:10:42;4.53;;;4.13;;
16270;SDS011;8243;49.048;8.396;2023-01-28T08:13:08;4.23;;;3.83;;
16270;SDS011;8243;49.048;8.396;2023-01-28T08:15:35;4.20;;;3.63;;
16270;SDS011;8243;49.048;8.396;2023-01-28T08:18:01;4.90;;;4.40;;
16270;SDS011;8243;49.048;8.396;2023-01-28T08:20:28;4.60;;;4.20;;
16270;SDS011;8243;49.048;8.396;2023-01-28T08:25:40;5.20;;;4.70;;
16270;SDS011;8243;49.048;8.396;2023-01-28T08:28:06;5.47;;;4.77;;
16270;SDS011;8243;49.048;8.396;2023-01-28T08:30:32;5.87;;;4.20;;
16270;SDS011;8243;49.048;8.396;2023-01-28T08:32:59;5.33;;;4.83;;
16270;SDS011;8243;49.048;8.396;2023-01-28T08:35:25;7.00;;;5.93;;
16270;SDS011;8243;49.048;8.396;2023-01-28T08:37:52;6.80;;;6.10;;
16270;SDS011;8243;49.048;8.396;2023-01-28T08:40:18;6.40;;;5.70;;
16270;SDS011;8243;49.048;8.396;2023-01-28T08:42:47;8.17;;;5.53;;
16270;SDS011;8243;49.048;8.396;2023-01-28T08:45:14;6.07;;;5.47;;
16270;SDS011;8243;49.048;8.396;2023-01-28T08:47:50;5.57;;;4.90;;
16270;SDS011;8243;49.048;8.396;2023-01-28T08:50:17;6.13;;;5.13;;
16270;SDS011;8243;49.048;8.396;2023-01-28T08:52:43;5.80;;;5.20;;
16270;SDS011;8243;49.048;8.396;2023-01-28T08:55:10;6.10;;;5.30;;
16270;SDS011;8243;49.048;8.396;2023-01-28T08:57:37;6.07;;;5.40;;
16270;SDS011;8243;49.048;8.396;2023-01-28T09:00:03;6.67;;;5.50;;
16270;SDS011;8243;49.048;8.396;2023-01-28T09:02:30;6.10;;;5.30;;
16270;SDS011;8243;49.048;8.396;2023-01-28T09:04:55;6.37;;;4.97;;
16270;SDS011;8243;49.048;8.396;2023-01-28T09:07:21;7.13;;;6.20;;
16270;SDS011;8243;49.048;8.396;2023-01-28T09:09:47;5.87;;;5.30;;
16270;SDS011;8243;49.048;8.396;2023-01-28T09:12:12;7.93;;;6.20;;
16270;SDS011;8243;49.048;8.396;2023-01-28T09:14:38;6.23;;;5.30;;
16270;SDS011;8243;49.048;8.396;2023-01-28T09:17:03;5.93;;;5.37;;
16270;SDS011;8243;49.048;8.396;2023-01-28T09:19:29;6.77;;;6.03;;
16270;SDS011;8243;49.048;8.396;2023-01-28T09:21:55;6.53;;;5.67;;
16270;SDS011;8243;49.048;8.396;2023-01-28T09:24:21;8.03;;;6.43;;
16270;SDS011;8243;49.048;8.396;2023-01-28T09:26:49;7.00;;;5.43;;
16270;SDS011;8243;49.048;8.396;2023-01-28T09:29:15;5.90;;;5.00;;
16270;SDS011;8243;49.048;8.396;2023-01-28T09:31:41;6.00;;;5.40;;
16270;SDS011;8243;49.048;8.396;2023-01-28T09:34:07;5.33;;;4.50;;
16270;SDS011;8243;49.048;8.396;2023-01-28T09:36:33;5.57;;;4.97;;
16270;SDS011;8243;49.048;8.396;2023-01-28T09:38:59;5.53;;;5.03;;
16270;SDS011;8243;49.048;8.396;2023-01-28T09:41:27;6.23;;;5.47;;
16270;SDS011;8243;49.048;8.396;2023-01-28T09:44:06;5.17;;;4.67;;
16270;SDS011;8243;49.048;8.396;2023-01-28T09:46:44;5.50;;;4.83;;
16270;SDS011;8243;49.048;8.396;2023-01-28T09:49:18;5.23;;;4.50;;
16270;SDS011;8243;49.048;8.396;2023-01-28T09:51:53;5.03;;;4.53;;
16270;SDS011;8243;49.048;8.396;2023-01-28T09:54:25;3.90;;;3.50;;
16270;SDS011;8243;49.048;8.396;2023-01-28T09:56:58;4.50;;;4.07;;
16270;SDS011;8243;49.048;8.396;2023-01-28T09:59:34;5.97;;;4.00;;
16270;SDS011;8243;49.048;8.396;2023-01-28T10:02:16;4.77;;;3.90;;
16270;SDS011;8243;49.048;8.396;2023-01-28T10:10:55;5.80;;;3.57;;
16270;SDS011;8243;49.048;8.396;2023-01-28T10:14:08;4.20;;;3.03;;
16270;SDS011;8243;49.048;8.396;2023-01-28T10:16:51;4.83;;;4.33;;
16270;SDS011;8243;49.048;8.396;2023-01-28T10:19:27;5.63;;;4.60;;
16270;SDS011;8243;49.048;8.396;2023-01-28T10:24:35;5.07;;;4.03;;
16270;SDS011;8243;49.048;8.396;2023-01-28T10:27:18;4.67;;;4.27;;
16270;SDS011;8243;49.048;8.396;2023-01-28T10:29:47;6.47;;;4.70;;
16270;SDS011;8243;49.048;8.396;2023-01-28T10:32:16;4.90;;;4.07;;
16270;SDS011;8243;49.048;8.396;2023-01-28T10:34:51;6.17;;;4.90;;
16270;SDS011;8243;49.048;8.396;2023-01-28T10:37:17;4.60;;;3.47;;
16270;SDS011;8243;49.048;8.396;2023-01-28T10:39:43;5.77;;;5.03;;
16270;SDS011;8243;49.048;8.396;2023-01-28T10:42:19;6.27;;;4.97;;
16270;SDS011;8243;49.048;8.396;2023-01-28T10:44:50;6.27;;;5.17;;
16270;SDS011;8243;49.048;8.396;2023-01-28T10:47:19;5.83;;;4.43;;
16270;SDS011;8243;49.048;8.396;2023-01-28T10:49:55;7.57;;;5.30;;
16270;SDS011;8243;49.048;8.396;2023-01-28T10:52:23;5.40;;;4.80;;
16270;SDS011;8243;49.048;8.396;2023-01-28T10:54:57;5.43;;;4.60;;
16270;SDS011;8243;49.048;8.396;2023-01-28T10:57:24;6.87;;;6.00;;
16270;SDS011;8243;49.048;8.396;2023-01-28T10:59:50;7.20;;;5.80;;
16270;SDS011;8243;49.048;8.396;2023-01-28T11:02:20;7.23;;;5.47;;
16270;SDS011;8243;49.048;8.396;2023-01-28T11:04:46;4.37;;;3.87;;
16270;SDS011;8243;49.048;8.396;2023-01-28T11:07:16;6.40;;;5.37;;
16270;SDS011;8243;49.048;8.396;2023-01-28T11:09:45;5.47;;;4.47;;
16270;SDS011;8243;49.048;8.396;2023-01-28T11:12:23;5.50;;;4.80;;
16270;SDS011;8243;49.048;8.396;2023-01-28T11:17:17;5.60;;;4.97;;
16270;SDS011;8243;49.048;8.396;2023-01-28T11:19:45;5.70;;;5.07;;
16270;SDS011;8243;49.048;8.396;2023-01-28T11:22:22;6.67;;;6.00;;
16270;SDS011;8243;49.048;8.396;2023-01-28T11:24:54;6.10;;;5.50;;
16270;SDS011;8243;49.048;8.396;2023-01-28T11:27:22;5.70;;;4.40;;
16270;SDS011;8243;49.048;8.396;2023-01-28T11:29:52;6.17;;;5.17;;
16270;SDS011;8243;49.048;8.396;2023-01-28T11:32:23;5.50;;;5.00;;
16270;SDS011;8243;49.048;8.396;2023-01-28T11:34:50;5.53;;;4.80;;
16270;SDS011;8243;49.048;8.396;2023-01-28T11:37:19;5.07;;;4.57;;
16270;SDS011;8243;49.048;8.396;2023-01-28T11:39:47;5.50;;;4.63;;
16270;SDS011;8243;49.048;8.396;2023-01-28T11:42:20;6.53;;;4.53;;
16270;SDS011;8243;49.048;8.396;2023-01-28T11:44:47;6.10;;;4.30;;
16270;SDS011;8243;49.048;8.396;2023-01-28T11:47:15;4.37;;;3.37;;
16270;SDS011;8243;49.048;8.396;2023-01-28T11:53:07;3.53;;;2.90;;
16270;SDS011;8243;49.048;8.396;2023-01-28T11:59:13;3.47;;;2.67;;
16270;SDS011;8243;49.048;8.396;2023-01-28T12:02:17;3.30;;;3.00;;
16270;SDS011;8243;49.048;8.396;2023-01-28T12:08:01;3.80;;;3.27;;
16270;SDS011;8243;49.048;8.396;2023-01-28T12:21:58;4.13;;;2.67;;
16270;SDS011;8243;49.048;8.396;2023-01-28T12:30:00;3.47;;;2.77;;
16270;SDS011;8243;49.048;8.396;2023-01-28T12:33:01;3.80;;;3.37;;
16270;SDS011;8243;49.048;8.396;2023-01-28T12:38:34;4.57;;;3.30;;
16270;SDS011;8243;49.048;8.396;2023-01-28T12:43:54;3.37;;;2.80;;
16270;SDS011;8243;49.048;8.396;2023-01-28T12:52:09;2.83;;;2.50;;
16270;SDS011;8243;49.048;8.396;2023-01-28T12:54:49;4.03;;;2.67;;
16270;SDS011;8243;49.048;8.396;2023-01-28T12:57:35;3.03;;;2.70;;
16270;SDS011;8243;49.048;8.396;2023-01-28T13:00:22;3.33;;;3.00;;
16270;SDS011;8243;49.048;8.396;2023-01-28T13:05:32;2.70;;;2.50;;
16270;SDS011;8243;49.048;8.396;2023-01-28T13:08:03;2.77;;;2.57;;
16270;SDS011;8243;49.048;8.396;2023-01-28T13:10:42;2.83;;;2.63;;
16270;SDS011;8243;49.048;8.396;2023-01-28T13:13:14;3.03;;;2.70;;
16270;SDS011;8243;49.048;8.396;2023-01-28T13:15:42;4.27;;;3.00;;
16270;SDS011;8243;49.048;8.396;2023-01-28T13:18:29;2.33;;;2.13;;
16270;SDS011;8243;49.048;8.396;2023-01-28T13:21:04;3.17;;;2.87;;
16270;SDS011;8243;49.048;8.396;2023-01-28T13:26:48;2.70;;;2.17;;
16270;SDS011;8243;49.048;8.396;2023-01-28T13:31:43;2.87;;;2.60;;
16270;SDS011;8243;49.048;8.396;2023-01-28T13:34:28;2.80;;;2.50;;
16270;SDS011;8243;49.048;8.396;2023-01-28T13:36:58;2.33;;;2.13;;
16270;SDS011;8243;49.048;8.396;2023-01-28T13:39:27;4.23;;;2.50;;
16270;SDS011;8243;49.048;8.396;2023-01-28T13:41:55;6.37;;;4.00;;
16270;SDS011;8243;49.048;8.396;2023-01-28T13:44:34;3.33;;;2.90;;
16270;SDS011;8243;49.048;8.396;2023-01-28T13:49:43;3.17;;;2.67;;
16270;SDS011;8243;49.048;8.396;2023-01-28T13:52:12;2.63;;;2.43;;
16270;SDS011;8243;49.048;8.396;2023-01-28T13:55:04;2.90;;;2.20;;
16270;SDS011;8243;49.048;8.396;2023-01-28T13:57:50;2.70;;;2.50;;
16270;SDS011;8243;49.048;8.396;2023-01-28T14:03:43;3.67;;;2.37;;
16270;SDS011;8243;49.048;8.396;2023-01-28T14:17:19;2.40;;;2.20;;
16270;SDS011;8243;49.048;8.396;2023-01-28T14:19:47;3.57;;;2.30;;
16270;SDS011;8243;49.048;8.396;2023-01-28T14:22:16;2.40;;;2.03;;
16270;SDS011;8243;49.048;8.396;2023-01-28T14:24:44;2.27;;;2.07;;
16270;SDS011;8243;49.048;8.396;2023-01-28T14:27:13;2.80;;;2.50;;
16270;SDS011;8243;49.048;8.396;2023-01-28T14:32:45;3.27;;;2.47;;
16270;SDS011;8243;49.048;8.396;2023-01-28T14:35:15;3.63;;;2.40;;
16270;SDS011;8243;49.048;8.396;2023-01-28T14:37:44;3.50;;;2.83;;
16270;SDS011;8243;49.048;8.396;2023-01-28T14:40:11;4.43;;;3.07;;
16270;SDS011;8243;49.048;8.396;2023-01-28T14:42:41;2.60;;;2.40;;
16270;SDS011;8243;49.048;8.396;2023-01-28T14:58:36;2.40;;;2.20;;
16270;SDS011;8243;49.048;8.396;2023-01-28T15:01:16;3.47;;;2.70;;
16270;SDS011;8243;49.048;8.396;2023-01-28T15:03:45;4.60;;;3.13;;
16270;SDS011;8243;49.048;8.396;2023-01-28T15:06:14;5.27;;;4.03;;
16270;SDS011;8243;49.048;8.396;2023-01-28T15:08:42;5.00;;;2.93;;
16270;SDS011;8243;49.048;8.396;2023-01-28T15:11:08;2.50;;;2.30;;
16270;SDS011;8243;49.048;8.396;2023-01-28T15:13:42;3.50;;;2.43;;
16270;SDS011;8243;49.048;8.396;2023-01-28T15:16:19;2.50;;;2.30;;
16270;SDS011;8243;49.048;8.396;2023-01-28T15:18:47;3.20;;;2.90;;
16270;SDS011;8243;49.048;8.396;2023-01-28T15:21:18;3.83;;;2.63;;
16270;SDS011;8243;49.048;8.396;2023-01-28T15:23:49;3.60;;;2.63;;
16270;SDS011;8243;49.048;8.396;2023-01-28T15:29:01;2.33;;;1.57;;
16270;SDS011;8243;49.048;8.396;2023-01-28T15:31:28;2.40;;;2.17;;
16270;SDS011;8243;49.048;8.396;2023-01-28T15:34:00;2.33;;;2.13;;
16270;SDS011;8243;49.048;8.396;2023-01-28T15:36:40;2.20;;;1.87;;
16270;SDS011;8243;49.048;8.396;2023-01-28T15:39:12;2.40;;;1.60;;
16270;SDS011;8243;49.048;8.396;2023-01-28T15:41:39;1.80;;;1.70;;
16270;SDS011;8243;49.048;8.396;2023-01-28T15:44:15;2.20;;;2.00;;
16270;SDS011;8243;49.048;8.396;2023-01-28T15:46:43;3.03;;;2.20;;
16270;SDS011;8243;49.048;8.396;2023-01-28T15:49:12;2.70;;;2.40;;
16270;SDS011;8243;49.048;8.396;2023-01-28T15:51:39;3.80;;;2.67;;
16270;SDS011;8243;49.048;8.396;2023-01-28T15:54:05;2.40;;;2.10;;
16270;SDS011;8243;49.048;8.396;2023-01-28T15:56:33;2.53;;;2.00;;
16270;SDS011;8243;49.048;8.396;2023-01-28T16:01:40;3.00;;;2.30;;
16270;SDS011;8243;49.048;8.396;2023-01-28T16:04:20;3.23;;;2.30;;
16270;SDS011;8243;49.048;8.396;2023-01-28T16:06:50;1.80;;;1.70;;
16270;SDS011;8243;49.048;8.396;2023-01-28T16:09:30;2.70;;;2.00;;
16270;SDS011;8243;49.048;8.396;2023-01-28T16:12:08;2.30;;;1.90;;
16270;SDS011;8243;49.048;8.396;2023-01-28T16:17:40;2.50;;;2.13;;
16270;SDS011;8243;49.048;8.396;2023-01-28T16:20:21;2.57;;;2.37;;
16270;SDS011;8243;49.048;8.396;2023-01-28T16:22:48;2.00;;;1.90;;
16270;SDS011;8243;49.048;8.396;2023-01-28T16:27:48;2.13;;;2.00;;
16270;SDS011;8243;49.048;8.396;2023-01-28T16:30:14;2.13;;;2.00;;
16270;SDS011;8243;49.048;8.396;2023-01-28T16:32:40;3.57;;;2.40;;
16270;SDS011;8243;49.048;8.396;2023-01-28T16:35:13;6.70;;;2.30;;
16270;SDS011;8243;49.048;8.396;2023-01-28T16:37:41;2.40;;;2.20;;
16270;SDS011;8243;49.048;8.396;2023-01-28T16:40:07;3.10;;;2.30;;
16270;SDS011;8243;49.048;8.396;2023-01-28T16:42:35;3.10;;;2.10;;
16270;SDS011;8243;49.048;8.396;2023-01-28T16:45:01;2.93;;;2.63;;
16270;SDS011;8243;49.048;8.396;2023-01-28T16:47:27;4.07;;;3.00;;
16270;SDS011;8243;49.048;8.396;2023-01-28T16:49:53;2.80;;;2.50;;
16270;SDS011;8243;49.048;8.396;2023-01-28T16:52:18;2.80;;;2.60;;
16270;SDS011;8243;49.048;8.396;2023-01-28T16:54:44;3.03;;;2.50;;
16270;SDS011;8243;49.048;8.396;2023-01-28T16:57:12;3.00;;;2.70;;
16270;SDS011;8243;49.048;8.396;2023-01-28T16:59:39;2.63;;;2.43;;
16270;SDS011;8243;49.048;8.396;2023-01-28T17:02:05;2.57;;;2.30;;
16270;SDS011;8243;49.048;8.396;2023-01-28T17:04:32;2.57;;;2.33;;
16270;SDS011;8243;49.048;8.396;2023-01-28T17:06:58;3.10;;;2.80;;
16270;SDS011;8243;49.048;8.396;2023-01-28T17:09:26;3.87;;;3.47;;
16270;SDS011;8243;49.048;8.396;2023-01-28T17:11:51;4.87;;;4.17;;
16270;SDS011;8243;49.048;8.396;2023-01-28T17:14:17;5.27;;;4.37;;
16270;SDS011;8243;49.048;8.396;2023-01-28T17:16:42;4.37;;;3.10;;
16270;SDS011;8243;49.048;8.396;2023-01-28T17:19:08;4.23;;;3.50;;
16270;SDS011;8243;49.048;8.396;2023-01-28T17:21:33;2.70;;;2.50;;
16270;SDS011;8243;49.048;8.396;2023-01-28T17:23:59;5.23;;;3.90;;